Time;durP1;ratioP1;P1;durP2;ratioP2;P2;SDS_P1;SDS_P2;PMS_P1;PMS_P2;Temp;Humidity;BMP_temperature;BMP_pressure;BME280_temperature;BME280_humidity;BME280_pressure;Samples;Min_cycle;Max_cycle;Signal;HPM_P1;HPM_P2
2022/04/04 00:02:10;;;;;;;9.98;8.38;;;;;;;-0.23;100.00;101917.09;5371101;27;20038;-76
2022/04/04 00:04:41;;;;;;;15.13;10.02;;;;;;;-0.29;100.00;101911.16;5389847;27;29452;-76
2022/04/04 00:07:13;;;;;;;15.48;9.60;;;;;;;-0.29;100.00;101903.31;5366299;27;20493;-76
2022/04/04 00:09:46;;;;;;;13.77;9.98;;;;;;;-0.23;100.00;101896.13;5391611;27;20026;-76
2022/04/04 00:12:17;;;;;;;10.65;8.43;;;;;;;-0.28;100.00;101898.00;5390955;27;20087;-76
2022/04/04 00:14:50;;;;;;;12.55;9.52;;;;;;;-0.23;100.00;101901.34;5370932;27;20424;-76
2022/04/04 00:17:24;;;;;;;10.70;8.70;;;;;;;-0.37;100.00;101890.41;5389322;27;20079;-76
2022/04/04 00:19:55;;;;;;;13.55;8.75;;;;;;;-0.32;100.00;101885.88;5390256;27;20023;-76
2022/04/04 00:22:27;;;;;;;12.90;9.77;;;;;;;-0.28;100.00;101895.38;5388152;27;20039;-76
2022/04/04 00:24:58;;;;;;;13.63;8.98;;;;;;;-0.30;100.00;101873.59;5387808;27;20031;-75
2022/04/04 00:27:29;;;;;;;11.23;9.15;;;;;;;-0.17;100.00;101879.31;5389147;27;20043;-76
2022/04/04 00:30:02;;;;;;;13.50;9.00;;;;;;;-0.20;100.00;101880.25;5371354;27;20023;-76
2022/04/04 00:32:36;;;;;;;16.63;9.68;;;;;;;-0.27;100.00;101873.50;5390775;27;20030;-75
2022/04/04 00:35:07;;;;;;;12.40;8.82;;;;;;;-0.24;100.00;101878.66;5386370;27;20057;-76
2022/04/04 00:37:38;;;;;;;13.02;9.82;;;;;;;-0.21;100.00;101875.94;5386336;27;20070;-76
2022/04/04 00:40:10;;;;;;;13.98;9.55;;;;;;;-0.16;100.00;101867.06;5369655;27;20038;-76
2022/04/04 00:42:41;;;;;;;12.88;8.95;;;;;;;-0.18;100.00;101864.47;5389323;27;20397;-76
2022/04/04 00:45:13;;;;;;;13.55;9.73;;;;;;;-0.24;100.00;101856.81;5388396;27;20087;-76
2022/04/04 00:47:44;;;;;;;11.15;9.93;;;;;;;-0.27;100.00;101857.75;5389662;27;20022;-75
2022/04/04 00:50:16;;;;;;;15.85;11.40;;;;;;;-0.26;100.00;101846.38;5389309;27;20037;-76
2022/04/04 00:52:47;;;;;;;12.15;10.18;;;;;;;-0.21;100.00;101851.47;5370007;27;20031;-75
2022/04/04 00:55:19;;;;;;;14.95;11.48;;;;;;;-0.17;100.00;101850.47;5389087;27;20021;-76
2022/04/04 00:57:54;;;;;;;14.35;10.32;;;;;;;-0.17;100.00;101844.38;5387043;27;20019;-76
2022/04/04 01:00:25;;;;;;;12.15;9.95;;;;;;;-0.21;100.00;101835.72;5368236;27;20498;-76
2022/04/04 01:02:56;;;;;;;14.02;11.18;;;;;;;-0.14;100.00;101833.78;5385929;27;20023;-76
2022/04/04 01:05:28;;;;;;;15.23;10.30;;;;;;;-0.14;100.00;101833.78;5387561;27;20034;-76
2022/04/04 01:07:59;;;;;;;15.73;10.80;;;;;;;-0.14;100.00;101828.53;5369430;27;20035;-76
2022/04/04 01:10:31;;;;;;;14.20;10.82;;;;;;;-0.25;100.00;101821.84;5389317;27;20076;-76
2022/04/04 01:13:02;;;;;;;14.43;9.82;;;;;;;-0.31;100.00;101815.97;5389410;27;20497;-76
2022/04/04 01:15:33;;;;;;;14.30;10.23;;;;;;;-0.20;100.00;101814.69;5388798;27;20023;-76
2022/04/04 01:18:06;;;;;;;13.27;9.93;;;;;;;-0.22;100.00;101813.03;5370923;27;20030;-76
2022/04/04 01:20:38;;;;;;;15.25;11.65;;;;;;;-0.11;100.00;101804.81;5385109;27;20100;-76
2022/04/04 01:23:13;;;;;;;17.38;10.23;;;;;;;-0.07;100.00;101801.19;5389084;27;20039;-76
2022/04/04 01:25:44;;;;;;;14.40;9.63;;;;;;;-0.05;100.00;101802.03;5388226;27;20364;-76
2022/04/04 01:28:15;;;;;;;11.10;9.90;;;;;;;-0.05;100.00;101781.88;5367905;27;20155;-76
2022/04/04 01:30:53;;;;;;;11.05;9.68;;;;;;;-0.04;100.00;101790.59;5388666;27;20106;-76
2022/04/04 01:33:25;;;;;;;13.73;9.43;;;;;;;-0.07;100.00;101786.31;5387800;27;20073;-76
2022/04/04 01:36:00;;;;;;;14.43;10.07;;;;;;;0.01;100.00;101783.44;5385249;27;20030;-75
2022/04/04 01:38:31;;;;;;;14.57;9.27;;;;;;;-0.06;100.00;101764.41;5386947;27;20058;-75
2022/04/04 01:41:02;;;;;;;11.82;9.18;;;;;;;-0.04;100.00;101761.75;5367776;27;20099;-76
2022/04/04 01:43:34;;;;;;;12.30;9.43;;;;;;;0.00;100.00;101766.00;5385470;27;20515;-75
2022/04/04 01:48:57;;;;;;;13.88;10.25;;;;;;;0.13;100.00;101743.66;5386993;27;20027;-76
2022/04/04 01:51:29;;;;;;;13.13;9.57;;;;;;;0.05;100.00;101750.94;5388778;27;20442;-74
2022/04/04 01:54:01;;;;;;;11.95;9.05;;;;;;;0.05;100.00;101748.31;5388163;27;20378;-75
2022/04/04 01:56:33;;;;;;;10.80;9.20;;;;;;;0.02;100.00;101734.44;5388319;27;20028;-75
2022/04/04 01:59:04;;;;;;;12.00;9.02;;;;;;;0.00;100.00;101721.41;5388232;27;20027;-75
2022/04/04 02:01:36;;;;;;;10.57;8.50;;;;;;;0.03;100.00;101726.53;5386985;27;20054;-75
2022/04/04 02:04:10;;;;;;;12.55;9.00;;;;;;;0.03;100.00;101716.03;5386766;27;20027;-76
2022/04/04 02:06:41;;;;;;;12.00;8.60;;;;;;;0.06;100.00;101710.69;5365819;27;21312;-76
2022/04/04 02:09:13;;;;;;;15.05;8.23;;;;;;;-0.01;100.00;101702.16;5369093;27;20014;-76
2022/04/04 02:11:44;;;;;;;11.80;8.82;;;;;;;0.05;100.00;101710.72;5367477;27;20037;-76
2022/04/04 02:14:15;;;;;;;14.02;9.07;;;;;;;0.06;100.00;101702.81;5385136;27;20037;-76
2022/04/04 02:16:47;;;;;;;11.93;9.18;;;;;;;0.15;100.00;101702.47;5384703;27;41548;-75
2022/04/04 02:19:18;;;;;;;11.75;8.75;;;;;;;0.18;100.00;101697.13;5387704;27;20019;-76
2022/04/04 02:21:50;;;;;;;12.05;7.88;;;;;;;0.16;100.00;101691.09;5366053;27;20472;-76
2022/04/04 02:24:21;;;;;;;10.50;8.35;;;;;;;0.28;100.00;101683.66;5383300;27;20084;-75
2022/04/04 02:26:52;;;;;;;10.70;7.90;;;;;;;0.35;100.00;101685.16;5389101;27;20054;-75
2022/04/04 02:29:23;;;;;;;11.98;8.50;;;;;;;0.41;100.00;101679.69;5388145;27;20428;-75
2022/04/04 02:31:55;;;;;;;11.52;7.90;;;;;;;0.41;100.00;101676.22;5389137;27;20045;-75
2022/04/04 02:34:26;;;;;;;10.85;8.68;;;;;;;0.43;100.00;101666.53;5388081;27;20049;-75
2022/04/04 02:36:58;;;;;;;11.32;7.40;;;;;;;0.41;100.00;101665.72;5389184;27;20402;-76
2022/04/04 02:39:29;;;;;;;9.23;7.22;;;;;;;0.46;100.00;101658.53;5388582;27;20532;-75
2022/04/04 02:42:01;;;;;;;9.80;6.90;;;;;;;0.47;100.00;101662.84;5389122;27;20023;-75
2022/04/04 02:44:32;;;;;;;10.18;8.02;;;;;;;0.58;100.00;101652.81;5387704;27;20039;-75
2022/04/04 02:47:04;;;;;;;13.32;7.90;;;;;;;0.61;100.00;101647.44;5388680;27;20087;-75
2022/04/04 02:49:36;;;;;;;11.90;8.05;;;;;;;0.59;100.00;101646.66;5388398;27;20033;-75
2022/04/04 02:52:07;;;;;;;11.80;8.40;;;;;;;0.64;100.00;101642.06;5388078;27;20023;-75
2022/04/04 02:54:38;;;;;;;11.18;8.48;;;;;;;0.68;100.00;101630.53;5388011;27;20105;-76
2022/04/04 02:57:10;;;;;;;11.07;7.55;;;;;;;0.72;100.00;101619.00;5369486;27;20023;-75
2022/04/04 02:59:41;;;;;;;8.35;6.78;;;;;;;0.66;100.00;101628.88;5388075;27;20491;-75
2022/04/04 03:02:12;;;;;;;8.60;7.13;;;;;;;0.74;100.00;101617.19;5368975;27;20019;-75
2022/04/04 03:04:44;;;;;;;12.30;7.05;;;;;;;0.75;100.00;101611.03;5388291;27;20384;-75
2022/04/04 03:07:16;;;;;;;11.82;7.60;;;;;;;0.80;100.00;101609.97;5368473;27;20030;-75
2022/04/04 03:09:47;;;;;;;11.82;7.50;;;;;;;0.78;100.00;101599.53;5367520;27;20402;-76
2022/04/04 03:12:19;;;;;;;7.82;6.80;;;;;;;0.81;100.00;101590.66;5368203;27;20030;-75
2022/04/04 03:14:51;;;;;;;9.55;7.60;;;;;;;0.78;100.00;101586.38;5374948;27;20033;-76
2022/04/04 03:17:22;;;;;;;9.77;7.47;;;;;;;0.75;100.00;101582.13;5387086;27;20079;-76
2022/04/04 03:19:53;;;;;;;10.00;6.85;;;;;;;0.79;100.00;101579.34;5388109;27;20031;-75
2022/04/04 03:22:25;;;;;;;12.38;7.30;;;;;;;0.82;100.00;101572.22;5388241;27;20110;-75
2022/04/04 03:24:56;;;;;;;9.18;7.03;;;;;;;0.84;100.00;101573.03;5369801;27;20393;-75
2022/04/04 03:27:27;;;;;;;9.43;7.30;;;;;;;0.95;100.00;101564.69;5391330;27;20400;-75
2022/04/04 03:29:59;;;;;;;12.38;7.38;;;;;;;0.94;100.00;101553.31;5391076;27;20026;-76
2022/04/04 03:32:30;;;;;;;9.75;6.75;;;;;;;0.98;100.00;101559.31;5392034;27;20531;-75
2022/04/04 03:35:04;;;;;;;9.25;6.82;;;;;;;0.99;100.00;101558.41;5373128;27;20030;-75
2022/04/04 03:37:37;;;;;;;9.68;7.07;;;;;;;0.98;100.00;101551.41;5391508;27;20041;-75
2022/04/04 03:40:12;;;;;;;9.57;7.35;;;;;;;1.06;100.00;101530.09;5391989;27;20061;-75
2022/04/04 03:42:46;;;;;;;13.20;7.53;;;;;;;1.15;100.00;101544.63;5391442;27;20021;-75
2022/04/04 03:45:19;;;;;;;8.98;7.22;;;;;;;1.15;100.00;101531.50;5389385;27;20707;-75
2022/04/04 03:47:50;;;;;;;11.68;7.80;;;;;;;1.17;100.00;101527.00;5391351;27;20114;-75
2022/04/04 03:50:23;;;;;;;8.70;7.43;;;;;;;1.16;100.00;101522.66;5390510;27;20101;-75
2022/04/04 03:52:55;;;;;;;8.82;5.75;;;;;;;1.21;100.00;101520.69;5391861;27;20049;-75
2022/04/04 03:55:30;;;;;;;10.75;7.03;;;;;;;1.24;100.00;101510.06;5372035;27;20029;-75
2022/04/04 03:58:02;;;;;;;13.32;6.88;;;;;;;1.20;100.00;101511.97;5388673;27;20041;-75
2022/04/04 04:00:34;;;;;;;10.13;7.18;;;;;;;1.30;100.00;101508.03;5390569;27;20397;-75
2022/04/04 04:03:07;;;;;;;13.88;7.47;;;;;;;1.31;100.00;101511.50;5390947;27;20038;-75
2022/04/04 04:05:38;;;;;;;10.75;7.57;;;;;;;1.35;100.00;101491.19;5390712;27;20030;-76
2022/04/04 04:08:10;;;;;;;9.80;6.90;;;;;;;1.30;100.00;101487.00;5390844;27;20023;-75
2022/04/04 04:10:41;;;;;;;12.43;8.00;;;;;;;1.44;100.00;101488.19;5391467;27;20057;-75
2022/04/04 04:13:12;;;;;;;11.25;7.50;;;;;;;1.39;100.00;101491.00;5372140;27;20037;-75
2022/04/04 04:15:43;;;;;;;10.02;7.72;;;;;;;1.46;100.00;101475.81;5390611;27;20126;-76
2022/04/04 04:18:15;;;;;;;15.63;8.40;;;;;;;1.46;100.00;101478.44;5390875;27;20034;-76
2022/04/04 04:20:46;;;;;;;14.35;7.97;;;;;;;1.52;100.00;101472.91;5391570;27;20026;-76
2022/04/04 04:23:18;;;;;;;9.52;7.13;;;;;;;1.55;100.00;101478.03;5390783;27;20049;-75
2022/04/04 04:25:49;;;;;;;9.25;7.22;;;;;;;1.51;100.00;101458.91;5390321;27;20064;-75
2022/04/04 04:28:21;;;;;;;11.50;7.85;;;;;;;1.55;100.00;101461.41;5387627;27;20041;-76
2022/04/04 04:30:52;;;;;;;13.32;7.68;;;;;;;1.59;100.00;101448.03;5390520;27;20386;-76
2022/04/04 04:33:24;;;;;;;14.30;8.82;;;;;;;1.70;100.00;101455.44;5390742;27;20902;-76
2022/04/04 04:35:57;;;;;;;11.75;8.38;;;;;;;1.75;100.00;101453.44;5370444;27;20050;-76
2022/04/04 04:38:30;;;;;;;11.73;8.07;;;;;;;1.70;100.00;101443.16;5390301;27;20023;-76
2022/04/04 04:41:01;;;;;;;11.05;9.18;;;;;;;1.69;100.00;101433.53;5390710;27;20022;-76
2022/04/04 04:43:33;;;;;;;11.25;8.05;;;;;;;1.72;100.00;101429.06;5390171;27;20436;-76
2022/04/04 04:46:04;;;;;;;13.45;8.10;;;;;;;1.75;100.00;101423.66;5371257;27;20478;-76
2022/04/04 04:48:35;;;;;;;11.77;8.13;;;;;;;1.75;100.00;101415.78;5388710;27;20113;-77
2022/04/04 04:51:07;;;;;;;14.15;8.93;;;;;;;1.83;100.00;101417.13;5389046;27;42057;-76
2022/04/04 04:53:39;;;;;;;14.48;8.88;;;;;;;1.86;100.00;101416.13;5390802;27;20034;-76
2022/04/04 04:56:11;;;;;;;14.98;8.75;;;;;;;1.92;100.00;101418.47;5386363;27;20071;-76
2022/04/04 04:58:42;;;;;;;13.43;8.05;;;;;;;1.95;100.00;101405.16;5389442;27;20031;-76
2022/04/04 05:01:13;;;;;;;13.50;8.60;;;;;;;1.93;100.00;101398.25;5390415;27;20046;-76
2022/04/04 05:03:45;;;;;;;15.32;8.40;;;;;;;1.99;100.00;101395.34;5389195;27;20531;-76
2022/04/04 05:06:16;;;;;;;13.85;7.82;;;;;;;2.00;100.00;101384.75;5370480;27;20486;-76
2022/04/04 05:08:47;;;;;;;15.43;8.68;;;;;;;2.05;100.00;101382.75;5389288;27;20065;-76
2022/04/04 05:11:18;;;;;;;12.13;8.63;;;;;;;2.13;100.00;101390.25;5367184;27;20110;-76
2022/04/04 05:13:50;;;;;;;10.55;8.02;;;;;;;2.15;100.00;101391.03;5389247;27;20027;-76
2022/04/04 05:16:28;;;;;;;10.88;8.20;;;;;;;2.19;100.00;101378.56;5370991;27;20025;-76
2022/04/04 05:18:59;;;;;;;12.35;9.23;;;;;;;2.21;100.00;101379.34;5389389;27;20397;-77
2022/04/04 05:21:30;;;;;;;13.32;9.02;;;;;;;2.28;100.00;101362.34;5387880;27;20126;-76
2022/04/04 05:24:02;;;;;;;13.00;8.93;;;;;;;2.32;100.00;101344.63;5388901;27;20037;-76
2022/04/04 05:26:34;;;;;;;11.70;9.70;;;;;;;2.33;100.00;101347.19;5385478;27;20069;-77
2022/04/04 05:29:05;;;;;;;15.25;8.75;;;;;;;2.41;100.00;101346.78;5388747;27;20031;-76
2022/04/04 05:31:37;;;;;;;15.05;9.90;;;;;;;2.40;100.00;101339.81;5389558;27;20134;-76
2022/04/04 05:34:08;;;;;;;18.38;10.27;;;;;;;2.42;100.00;101330.03;5390202;27;20499;-77
2022/04/04 05:36:39;;;;;;;14.82;11.05;;;;;;;2.51;100.00;101329.59;5390086;27;20043;-77
2022/04/04 05:39:10;;;;;;;15.30;11.15;;;;;;;2.58;100.00;101327.50;5390112;27;20121;-77
2022/04/04 05:41:42;;;;;;;15.35;10.00;;;;;;;2.58;100.00;101325.72;5389369;27;20010;-77
2022/04/04 05:44:14;;;;;;;11.75;9.65;;;;;;;2.61;100.00;101320.28;5384901;27;20340;-77
2022/04/04 05:46:46;;;;;;;11.32;9.55;;;;;;;2.65;100.00;101323.63;5390161;27;20372;-77
2022/04/04 05:49:18;;;;;;;14.00;9.27;;;;;;;2.67;100.00;101305.09;5389435;27;20015;-77
2022/04/04 05:51:50;;;;;;;16.77;9.93;;;;;;;2.70;100.00;101312.81;5390059;27;20026;-77
2022/04/04 05:54:21;;;;;;;15.32;9.98;;;;;;;2.73;100.00;101296.84;5389553;27;20030;-77
2022/04/04 05:56:52;;;;;;;15.35;9.40;;;;;;;2.75;100.00;101310.78;5391010;27;20021;-77
2022/04/04 05:59:27;;;;;;;14.25;8.63;;;;;;;2.79;100.00;101300.03;5388793;27;20087;-77
2022/04/04 06:01:58;;;;;;;14.50;8.75;;;;;;;2.86;100.00;101287.38;5369014;27;20023;-77
2022/04/04 06:04:29;;;;;;;13.70;9.20;;;;;;;2.93;100.00;101290.53;5369909;27;20064;-77
2022/04/04 06:07:00;;;;;;;11.98;9.65;;;;;;;2.95;100.00;101286.88;5370813;27;20037;-77
2022/04/04 06:09:32;;;;;;;10.43;8.95;;;;;;;3.05;100.00;101281.97;5370103;27;20042;-77
2022/04/04 06:12:03;;;;;;;12.10;8.57;;;;;;;3.06;100.00;101296.84;5387820;27;20459;-77
2022/04/04 06:14:35;;;;;;;11.98;9.85;;;;;;;3.13;100.00;101287.66;5387295;27;20529;-77
2022/04/04 06:17:06;;;;;;;13.48;8.95;;;;;;;3.13;100.00;101271.84;5368865;27;20141;-77
2022/04/04 06:19:38;;;;;;;11.43;7.03;;;;;;;3.18;100.00;101269.81;5369129;27;20027;-77
2022/04/04 06:22:09;;;;;;;15.13;9.25;;;;;;;3.17;100.00;101265.50;5384926;27;20049;-77
2022/04/04 06:24:40;;;;;;;15.05;9.48;;;;;;;3.29;100.00;101257.81;5387578;27;20039;-77
2022/04/04 06:27:11;;;;;;;12.50;9.38;;;;;;;3.33;100.00;101270.78;5388020;27;20029;-77
2022/04/04 06:29:45;;;;;;;16.23;8.88;;;;;;;3.40;100.00;101264.22;5386374;27;20114;-77
2022/04/04 06:32:16;;;;;;;15.68;9.45;;;;;;;3.38;100.00;101252.91;5370088;27;20417;-78
2022/04/04 06:34:47;;;;;;;12.70;9.43;;;;;;;3.50;100.00;101247.88;5369091;27;20031;-77
2022/04/04 06:37:19;;;;;;;15.88;9.98;;;;;;;3.59;100.00;101235.00;5369563;27;20014;-77
2022/04/04 06:39:50;;;;;;;13.13;9.52;;;;;;;3.73;100.00;101233.34;5385287;27;20043;-77
2022/04/04 06:42:22;;;;;;;16.13;9.05;;;;;;;3.85;100.00;101224.72;5383983;27;20027;-76
2022/04/04 06:44:55;;;;;;;15.80;9.60;;;;;;;4.04;100.00;101228.94;5385355;27;20486;-77
2022/04/04 06:47:26;;;;;;;14.32;8.52;;;;;;;3.97;100.00;101218.72;5388660;27;20026;-77
2022/04/04 06:49:59;;;;;;;14.52;8.40;;;;;;;4.04;100.00;101218.38;5389222;27;20031;-76
2022/04/04 06:52:30;;;;;;;14.85;8.93;;;;;;;4.07;100.00;101205.00;5387492;27;20101;-75
2022/04/04 06:55:02;;;;;;;17.38;9.20;;;;;;;4.13;100.00;101208.09;5378024;27;20161;-76
2022/04/04 06:57:33;;;;;;;15.60;9.00;;;;;;;4.13;100.00;101194.06;5386045;27;20027;-76
2022/04/04 07:00:08;;;;;;;16.80;10.40;;;;;;;4.29;100.00;101188.69;5387435;27;20168;-76
2022/04/04 07:02:40;;;;;;;15.68;8.70;;;;;;;4.40;100.00;101193.31;5380858;27;20499;-75
2022/04/04 07:05:11;;;;;;;15.70;8.68;;;;;;;4.39;100.00;101195.13;5367601;27;20633;-76
2022/04/04 07:07:42;;;;;;;17.85;9.70;;;;;;;4.48;100.00;101180.50;5367879;27;20511;-76
2022/04/04 07:10:14;;;;;;;13.05;8.80;;;;;;;4.59;100.00;101177.19;5378946;27;20153;-76
2022/04/04 07:12:45;;;;;;;13.35;8.77;;;;;;;4.73;100.00;101166.59;5388110;27;20027;-76
2022/04/04 07:15:17;;;;;;;11.98;8.10;;;;;;;4.65;100.00;101180.31;5388919;27;20030;-77
2022/04/04 07:17:48;;;;;;;15.38;9.40;;;;;;;4.64;100.00;101161.91;5389413;27;20054;-77
2022/04/04 07:20:19;;;;;;;11.48;8.50;;;;;;;4.69;100.00;101151.88;5388647;27;20113;-76
2022/04/04 07:22:51;;;;;;;12.52;8.25;;;;;;;4.79;100.00;101144.25;5388753;27;20134;-77
2022/04/04 07:25:22;;;;;;;18.80;8.43;;;;;;;4.81;100.00;101143.19;5386974;27;20368;-77
2022/04/04 07:27:54;;;;;;;12.20;7.70;;;;;;;4.74;100.00;101116.28;5369949;27;20029;-77
2022/04/04 07:30:26;;;;;;;14.60;8.98;;;;;;;4.77;100.00;101122.31;5388110;27;20076;-77
2022/04/04 07:32:57;;;;;;;15.77;8.73;;;;;;;4.83;100.00;101127.22;5388299;27;20301;-77
2022/04/04 07:35:29;;;;;;;16.75;8.23;;;;;;;4.92;100.00;101129.28;5383225;27;20079;-76
2022/04/04 07:38:00;;;;;;;9.95;7.75;;;;;;;5.00;100.00;101119.06;5389200;27;20019;-77
2022/04/04 07:40:31;;;;;;;12.75;8.40;;;;;;;5.06;100.00;101131.03;5385460;27;20031;-76
2022/04/04 07:43:03;;;;;;;12.07;8.38;;;;;;;5.13;100.00;101129.69;5369901;27;20059;-77
2022/04/04 07:45:35;;;;;;;13.45;7.95;;;;;;;5.16;100.00;101105.69;5389085;27;20463;-76
2022/04/04 07:48:07;;;;;;;11.63;8.15;;;;;;;5.16;100.00;101118.06;5387817;27;20102;-76
2022/04/04 07:50:41;;;;;;;9.90;7.75;;;;;;;5.27;100.00;101116.38;5387693;27;20027;-76
2022/04/04 07:53:13;;;;;;;12.15;8.35;;;;;;;5.38;100.00;101122.75;5388114;27;20018;-77
2022/04/04 07:55:45;;;;;;;13.65;8.43;;;;;;;5.37;100.00;101103.41;5382200;27;20046;-76
2022/04/04 07:58:17;;;;;;;12.20;7.68;;;;;;;5.44;100.00;101099.41;5387795;27;20170;-76
2022/04/04 08:00:49;;;;;;;13.25;8.63;;;;;;;5.46;100.00;101078.13;5388335;27;20431;-76
2022/04/04 08:03:22;;;;;;;14.68;8.32;;;;;;;5.61;100.00;101073.59;5365917;27;20061;-76
2022/04/04 08:05:54;;;;;;;13.18;8.38;;;;;;;5.69;100.00;101084.50;5388214;27;20033;-75
2022/04/04 08:08:25;;;;;;;10.63;7.63;;;;;;;5.80;100.00;101071.41;5387917;27;20502;-75
2022/04/04 08:11:00;;;;;;;14.23;8.32;;;;;;;6.00;100.00;101061.25;5385792;27;20038;-76
2022/04/04 08:13:31;;;;;;;16.38;9.18;;;;;;;6.11;100.00;101049.91;5390984;27;20022;-75
2022/04/04 08:16:02;;;;;;;20.25;7.63;;;;;;;6.25;100.00;101086.84;5391672;27;20023;-75
2022/04/04 08:18:34;;;;;;;14.98;8.10;;;;;;;6.27;100.00;101068.19;5355702;27;20023;-75
2022/04/04 08:21:05;;;;;;;17.45;6.90;;;;;;;6.34;100.00;101035.84;5386666;27;20033;-75
2022/04/04 08:23:36;;;;;;;17.73;7.70;;;;;;;6.33;100.00;101047.41;5390559;27;37644;-76
2022/04/04 08:26:08;;;;;;;14.85;7.03;;;;;;;6.30;100.00;101036.19;5372656;27;20023;-76
2022/04/04 08:28:39;;;;;;;11.65;7.20;;;;;;;6.36;100.00;101049.00;5359844;27;20031;-75
2022/04/04 08:31:10;;;;;;;9.48;6.88;;;;;;;6.48;100.00;101029.56;5351381;27;20023;-75
2022/04/04 08:33:42;;;;;;;16.15;7.45;;;;;;;6.51;100.00;101029.34;5369798;27;20094;-75
2022/04/04 08:36:13;;;;;;;63.55;10.23;;;;;;;6.52;100.00;101003.69;5354279;27;20020;-77
2022/04/04 08:38:44;;;;;;;13.75;6.40;;;;;;;6.64;100.00;101016.03;5385927;27;20383;-75
2022/04/04 08:41:16;;;;;;;12.25;6.50;;;;;;;6.68;100.00;101016.66;5370404;27;20463;-75
2022/04/04 08:43:51;;;;;;;11.75;7.20;;;;;;;6.78;100.00;101007.94;5376606;27;20027;-75
2022/04/04 08:46:24;;;;;;;26.92;8.02;;;;;;;6.89;100.00;101012.44;5391242;27;20080;-74
2022/04/04 08:48:58;;;;;;;24.33;7.45;;;;;;;6.75;100.00;100994.03;5391853;27;20019;-74
2022/04/04 08:51:30;;;;;;;25.70;7.63;;;;;;;6.74;100.00;100998.47;5389591;27;20019;-74
2022/04/04 08:54:01;;;;;;;20.17;6.50;;;;;;;6.79;100.00;100975.13;5390018;27;20458;-75
2022/04/04 08:56:33;;;;;;;14.45;7.45;;;;;;;6.77;100.00;100984.19;5386185;27;20128;-75
2022/04/04 08:59:04;;;;;;;15.43;6.88;;;;;;;6.78;100.00;100980.53;5369163;27;20027;-76
2022/04/04 09:01:36;;;;;;;14.52;7.35;;;;;;;6.65;100.00;100972.66;5390070;27;20015;-75
2022/04/04 09:04:07;;;;;;;18.75;8.00;;;;;;;6.53;100.00;100987.66;5389084;27;20018;-75
2022/04/04 09:06:57;;;;;;;16.43;6.53;;;;;;;6.61;100.00;100976.53;5390685;27;20045;-75
2022/04/04 09:09:45;;;;;;;11.73;7.75;;;;;;;6.50;100.00;100971.97;5366831;27;20272;-74
2022/04/04 09:12:21;;;;;;;15.38;7.45;;;;;;;6.32;100.00;100984.78;5387782;27;20069;-74
2022/04/04 09:14:54;;;;;;;12.20;7.35;;;;;;;6.22;100.00;100974.03;5389064;27;20031;-74
2022/04/04 09:17:30;;;;;;;21.42;9.00;;;;;;;6.24;100.00;100960.63;5389033;27;20103;-74
2022/04/04 09:20:08;;;;;;;10.33;7.47;;;;;;;6.32;100.00;100978.66;5378757;27;20038;-75
2022/04/04 09:22:52;;;;;;;12.80;7.80;;;;;;;6.25;100.00;100978.22;5386178;27;20407;-74
2022/04/04 09:25:31;;;;;;;17.52;8.23;;;;;;;6.27;100.00;100947.19;5388173;27;20050;-75
2022/04/04 09:28:19;;;;;;;12.48;7.10;;;;;;;6.30;100.00;100954.06;5388302;27;20030;-74
2022/04/04 09:31:09;;;;;;;11.57;7.75;;;;;;;6.28;100.00;100950.69;5369929;27;20019;-75
2022/04/04 09:33:41;;;;;;;10.48;7.90;;;;;;;6.25;100.00;100944.63;5389342;27;20554;-75
2022/04/04 09:36:12;;;;;;;12.80;7.75;;;;;;;6.16;100.00;100941.84;5370982;27;20050;-75
2022/04/04 09:38:53;;;;;;;13.85;8.10;;;;;;;5.94;100.00;100927.44;5386465;27;20825;-75
2022/04/04 09:41:25;;;;;;;14.55;8.95;;;;;;;5.83;100.00;100938.81;5356620;27;20390;-75
2022/04/04 09:43:59;;;;;;;11.00;9.13;;;;;;;5.77;100.00;100928.66;5385012;27;20031;-75
2022/04/04 09:46:38;;;;;;;11.95;9.10;;;;;;;5.72;100.00;100951.97;5370829;27;20035;-75
2022/04/04 09:49:16;;;;;;;16.08;8.75;;;;;;;5.74;100.00;100951.88;5389322;27;20018;-75
2022/04/04 09:51:50;;;;;;;10.10;7.80;;;;;;;5.71;100.00;100920.31;5390297;27;20417;-75
2022/04/04 09:54:30;;;;;;;15.43;8.93;;;;;;;5.71;100.00;100930.91;5388567;27;20925;-75
2022/04/04 09:57:12;;;;;;;12.82;9.10;;;;;;;5.77;100.00;100923.38;5374308;27;20038;-75
2022/04/04 09:59:43;;;;;;;14.00;8.20;;;;;;;5.72;100.00;100932.59;5386805;27;20034;-74
2022/04/04 10:02:15;;;;;;;14.43;10.02;;;;;;;5.65;100.00;100926.88;5385153;27;20075;-75
2022/04/04 10:04:48;;;;;;;17.30;9.02;;;;;;;5.72;100.00;100914.91;5382275;27;20500;-75
2022/04/04 10:07:19;;;;;;;15.80;9.07;;;;;;;5.66;100.00;100910.91;5388679;27;20498;-75
2022/04/04 10:09:51;;;;;;;11.98;8.73;;;;;;;5.80;100.00;100917.88;5387747;27;20053;-74
2022/04/04 10:12:22;;;;;;;16.65;10.32;;;;;;;5.73;100.00;100908.66;5388008;27;20023;-75
2022/04/04 10:14:54;;;;;;;12.27;9.70;;;;;;;5.75;100.00;100914.69;5388069;27;20023;-75
2022/04/04 10:17:25;;;;;;;14.07;9.43;;;;;;;5.69;100.00;100897.44;5388786;27;20026;-75
2022/04/04 10:19:57;;;;;;;13.30;10.10;;;;;;;5.68;100.00;100916.94;5369292;27;20023;-75
2022/04/04 10:22:29;;;;;;;12.25;9.18;;;;;;;5.69;100.00;100908.03;5386907;27;20127;-75
2022/04/04 10:25:02;;;;;;;15.93;9.65;;;;;;;5.63;100.00;100929.63;5389170;27;21886;-75
2022/04/04 10:27:35;;;;;;;12.30;10.10;;;;;;;5.50;100.00;100910.28;5386514;27;20201;-75
2022/04/04 10:30:08;;;;;;;12.73;9.18;;;;;;;5.48;100.00;100902.44;5387862;27;20116;-75
2022/04/04 10:32:58;;;;;;;12.38;10.35;;;;;;;5.58;100.00;100892.06;5386646;27;20031;-75
2022/04/04 10:35:31;;;;;;;16.13;11.70;;;;;;;5.35;100.00;100904.28;5384241;27;20065;-75
2022/04/04 10:38:04;;;;;;;12.05;9.55;;;;;;;5.38;100.00;100904.06;5386008;27;20059;-75
2022/04/04 10:40:37;;;;;;;14.35;11.43;;;;;;;5.39;100.00;100904.91;5385505;27;20034;-75
2022/04/04 10:43:13;;;;;;;15.65;11.05;;;;;;;5.42;100.00;100894.97;5386976;27;20042;-75
2022/04/04 10:45:53;;;;;;;13.63;11.77;;;;;;;5.36;100.00;100905.13;5386139;27;20118;-75
2022/04/04 10:48:33;;;;;;;12.65;11.10;;;;;;;5.25;100.00;100903.22;5387734;27;20065;-75
2022/04/04 10:51:34;;;;;;;14.48;11.10;;;;;;;5.22;100.00;100898.13;5383121;27;20101;-75
2022/04/04 10:54:09;;;;;;;16.55;13.10;;;;;;;5.13;100.00;100881.13;5386670;27;20083;-75
2022/04/04 10:56:45;;;;;;;16.42;12.02;;;;;;;5.23;100.00;100891.91;5388842;27;20503;-75
2022/04/04 10:59:16;;;;;;;11.50;9.32;;;;;;;5.23;100.00;100882.16;5383199;27;20109;-75
2022/04/04 11:01:58;;;;;;;13.52;12.07;;;;;;;5.17;100.00;100874.69;5386246;27;20105;-75
2022/04/04 11:04:36;;;;;;;15.63;12.35;;;;;;;5.21;100.00;100878.78;5385169;27;20489;-75
2022/04/04 11:07:38;;;;;;;14.35;11.70;;;;;;;5.32;100.00;100879.84;5366859;27;20026;-75
2022/04/04 11:10:10;;;;;;;14.85;11.55;;;;;;;5.29;100.00;100894.97;5381300;27;20052;-76
2022/04/04 11:13:02;;;;;;;13.55;12.18;;;;;;;5.18;100.00;100857.00;5385612;27;20043;-76
2022/04/04 11:15:53;;;;;;;14.63;10.85;;;;;;;5.14;100.00;100869.59;5388159;27;20027;-76
2022/04/04 11:18:51;;;;;;;16.52;12.48;;;;;;;5.00;100.00;100875.84;5388072;27;20023;-76
2022/04/04 11:21:41;;;;;;;;;;;;;;;5.03;100.00;100850.97;5386914;27;20126;-76
2022/04/04 11:24:15;;;;;;;14.95;12.95;;;;;;;5.03;100.00;100858.91;5385880;27;20002;-76
2022/04/04 11:26:56;;;;;;;14.88;13.40;;;;;;;4.95;100.00;100862.09;5381514;27;20379;-75
2022/04/04 11:29:29;;;;;;;13.95;10.73;;;;;;;4.92;100.00;100844.63;5364906;27;20018;-76
2022/04/04 11:32:00;;;;;;;10.88;9.77;;;;;;;4.85;100.00;100845.16;5390004;27;20025;-76
2022/04/04 11:34:33;;;;;;;13.57;11.18;;;;;;;4.85;100.00;100864.50;5377667;27;20030;-76
2022/04/04 11:37:27;;;;;;;13.25;12.02;;;;;;;4.88;100.00;100863.47;5379493;27;20531;-76
2022/04/04 11:40:03;;;;;;;14.27;12.25;;;;;;;4.85;100.00;100842.53;5380746;27;20034;-76
2022/04/04 11:43:04;;;;;;;15.35;12.70;;;;;;;4.87;100.00;100843.25;5379050;27;20359;-76
2022/04/04 11:45:37;;;;;;;16.00;14.10;;;;;;;4.88;100.00;100852.88;5338457;27;20107;-76